Time;durP1;ratioP1;P1;durP2;ratioP2;P2;SDS_P1;SDS_P2;PMS_P1;PMS_P2;Temp;Humidity;BMP_temperature;BMP_pressure;BME280_temperature;BME280_humidity;BME280_pressure;Samples;Min_cycle;Max_cycle;Signal;HPM_P1;HPM_P2
2023/07/18 00:03:32;;;;;;;10.10;5.83;;;13.50;1.00;;;;;;2614827;54;20403;-70
2023/07/18 00:09:21;;;;;;;8.40;5.53;;;13.50;1.00;;;;;;2614951;54;20121;-73
2023/07/18 00:15:09;;;;;;;9.23;6.57;;;13.60;1.00;;;;;;2614818;54;20891;-70
2023/07/18 00:20:57;;;;;;;7.67;5.80;;;13.50;1.00;;;;;;2614648;54;20495;-70
2023/07/18 00:30:35;;;;;;;8.07;6.47;;;13.50;1.00;;;;;;2614192;54;20395;-70
2023/07/18 00:36:23;;;;;;;11.20;7.33;;;13.40;1.00;;;;;;2613499;54;20371;-70
2023/07/18 00:42:10;;;;;;;13.00;6.40;;;13.20;1.00;;;;;;2614506;54;21020;-70
2023/07/18 00:47:58;;;;;;;10.13;6.53;;;13.20;1.00;;;;;;2614086;54;20152;-70
2023/07/18 00:53:46;;;;;;;9.57;7.27;;;13.20;1.00;;;;;;2614588;54;20138;-69
2023/07/18 00:59:35;;;;;;;10.70;6.80;;;13.20;1.00;;;;;;2613645;54;20138;-70
2023/07/18 01:05:23;;;;;;;8.67;5.50;;;13.10;1.00;;;;;;2610429;39;20797;-74
2023/07/18 01:11:11;;;;;;;8.13;5.50;;;12.80;1.00;;;;;;2614510;46;20264;-73
2023/07/18 01:16:59;;;;;;;7.43;5.40;;;12.80;1.00;;;;;;2614225;54;20131;-74
2023/07/18 01:22:49;;;;;;;14.70;7.20;;;12.50;1.00;;;;;;2614574;39;20646;-73
2023/07/18 01:26:06;;;;;;;10.03;6.10;;;12.50;1.00;;;;;;2614189;54;20515;-73
2023/07/18 01:28:32;;;;;;;9.90;6.10;;;12.40;1.00;;;;;;2614197;46;20435;-73
2023/07/18 01:34:19;;;;;;;7.03;5.20;;;12.20;1.00;;;;;;2614308;54;20127;-73
2023/07/18 01:40:08;;;;;;;7.40;5.90;;;12.20;1.00;;;;;;2614438;54;20162;-73
2023/07/18 01:45:59;;;;;;;6.37;5.60;;;12.10;1.00;;;;;;2613639;54;20462;-72
2023/07/18 01:51:47;;;;;;;11.87;6.57;;;12.00;1.00;;;;;;2612501;54;20426;-73
2023/07/18 01:57:38;;;;;;;7.33;5.20;;;12.10;1.00;;;;;;2614203;39;20606;-73
2023/07/18 02:03:25;;;;;;;10.40;6.20;;;12.10;1.00;;;;;;2613253;39;20759;-74
2023/07/18 02:09:13;;;;;;;6.95;6.20;;;12.10;1.00;;;;;;2614669;54;20154;-73
2023/07/18 02:15:02;;;;;;;8.50;5.70;;;12.20;1.00;;;;;;2614635;54;20126;-72
2023/07/18 02:20:49;;;;;;;18.33;6.30;;;12.00;1.00;;;;;;2613258;54;20372;-72
2023/07/18 02:30:36;;;;;;;11.93;6.70;;;12.30;1.00;;;;;;2614944;46;20401;-74
2023/07/18 02:36:24;;;;;;;11.47;6.43;;;12.20;1.00;;;;;;2612812;39;20711;-72
2023/07/18 02:42:12;;;;;;;10.90;5.87;;;12.20;1.00;;;;;;2614060;54;20424;-74
2023/07/18 02:48:00;;;;;;;8.67;5.73;;;12.40;1.00;;;;;;2613316;54;20159;-73
2023/07/18 02:53:50;;;;;;;7.27;5.97;;;12.30;1.00;;;;;;2613748;54;20664;-76
2023/07/18 02:59:38;;;;;;;9.20;6.57;;;12.10;1.00;;;;;;2614014;54;20410;-76
2023/07/18 03:05:27;;;;;;;9.63;6.67;;;12.00;1.00;;;;;;2612686;54;20134;-77
2023/07/18 03:11:14;;;;;;;11.07;6.03;;;12.00;1.00;;;;;;2614686;39;20774;-77
2023/07/18 03:17:02;;;;;;;8.03;5.80;;;12.10;1.00;;;;;;2612127;54;20151;-77
2023/07/18 03:22:50;;;;;;;7.10;5.30;;;12.10;1.00;;;;;;2612917;54;20148;-76
2023/07/18 03:26:07;;;;;;;8.43;6.57;;;12.20;1.00;;;;;;2612979;54;20435;-76
2023/07/18 03:28:33;;;;;;;9.37;6.53;;;12.40;1.00;;;;;;2613851;54;21096;-77
2023/07/18 03:34:20;;;;;;;17.10;6.77;;;12.60;1.00;;;;;;2612500;54;20165;-76
2023/07/18 03:40:10;;;;;;;11.10;5.80;;;12.90;1.00;;;;;;2613721;54;20166;-76
2023/07/18 03:45:57;;;;;;;6.30;5.50;;;12.90;1.00;;;;;;2613447;54;20404;-77
2023/07/18 03:51:45;;;;;;;9.80;6.27;;;13.10;1.00;;;;;;2612668;54;20150;-75
2023/07/18 03:57:33;;;;;;;8.83;5.40;;;13.10;1.00;;;;;;2613899;54;20134;-76
2023/07/18 04:03:21;;;;;;;8.63;6.27;;;13.30;1.00;;;;;;2613341;54;20412;-75
2023/07/18 04:09:09;;;;;;;7.00;5.97;;;13.50;1.00;;;;;;2614110;54;20156;-76
2023/07/18 04:14:57;;;;;;;7.43;5.27;;;13.50;1.00;;;;;;2613808;54;20378;-76
2023/07/18 04:20:45;;;;;;;10.20;5.70;;;13.60;1.00;;;;;;2612762;46;20524;-76
2023/07/18 04:30:36;;;;;;;6.70;5.63;;;13.50;1.00;;;;;;2614485;39;20774;-75
2023/07/18 04:36:25;;;;;;;9.63;6.23;;;13.70;1.00;;;;;;2614718;54;20440;-75
2023/07/18 04:42:13;;;;;;;11.10;5.23;;;13.80;1.00;;;;;;2613605;54;20422;-75
2023/07/18 04:48:01;;;;;;;6.87;5.90;;;14.00;1.00;;;;;;2613384;54;20974;-76
2023/07/18 04:53:48;;;;;;;6.90;5.10;;;14.40;1.00;;;;;;2612657;39;20556;-76
2023/07/18 04:59:36;;;;;;;10.40;6.10;;;14.70;1.00;;;;;;2614510;54;20158;-76
2023/07/18 05:05:28;;;;;;;7.67;6.57;;;14.90;1.00;;;;;;2613498;54;20134;-76
2023/07/18 05:11:17;;;;;;;10.50;6.30;;;15.20;1.00;;;;;;2614692;39;20773;-76
2023/07/18 05:17:04;;;;;;;6.87;5.90;;;15.70;1.00;;;;;;2614797;54;20379;-76
2023/07/18 05:22:52;;;;;;;7.23;6.50;;;16.60;1.00;;;;;;2614492;54;20167;-75
2023/07/18 05:26:10;;;;;;;8.80;5.40;;;16.80;1.00;;;;;;2613429;54;20424;-76
2023/07/18 05:28:35;;;;;;;7.50;6.30;;;16.70;1.00;;;;;;2613449;47;20174;-75
2023/07/18 05:34:23;;;;;;;6.90;6.27;;;16.50;1.00;;;;;;2614665;54;20153;-75
2023/07/18 05:40:12;;;;;;;6.80;6.20;;;16.50;1.00;;;;;;2614931;54;20148;-76
2023/07/18 05:45:59;;;;;;;6.57;6.07;;;17.20;1.00;;;;;;2614809;54;20930;-75
2023/07/18 05:51:47;;;;;;;6.27;5.77;;;17.90;1.00;;;;;;2614252;54;20130;-76
2023/07/18 05:57:36;;;;;;;6.23;5.67;;;18.00;1.00;;;;;;2614987;54;20242;-75
2023/07/18 06:03:24;;;;;;;7.43;6.50;;;18.50;1.00;;;;;;2613734;54;20934;-77
2023/07/18 06:09:12;;;;;;;6.73;6.23;;;18.60;1.00;;;;;;2611774;54;20399;-73
2023/07/18 06:15:00;;;;;;;6.93;6.43;;;18.90;1.00;;;;;;2613193;54;20430;-72
2023/07/18 06:20:48;;;;;;;9.53;8.83;;;19.00;1.00;;;;;;2613311;54;20138;-73
2023/07/18 06:30:38;;;;;;;7.20;6.53;;;19.50;1.00;;;;;;2613613;54;20421;-72
2023/07/18 06:36:25;;;;;;;8.37;7.67;;;20.00;1.00;;;;;;2614024;39;20811;-72
2023/07/18 06:42:13;;;;;;;8.43;7.37;;;20.00;1.00;;;;;;2611408;54;20134;-73
2023/07/18 06:48:02;;;;;;;7.90;7.30;;;20.30;1.00;;;;;;2614369;54;20147;-73
2023/07/18 06:53:49;;;;;;;7.87;7.33;;;19.90;1.00;;;;;;2614155;54;20929;-75
2023/07/18 06:59:37;;;;;;;8.30;7.80;;;19.80;1.00;;;;;;2612665;54;20130;-75
2023/07/18 07:05:25;;;;;;;9.03;7.80;;;20.60;1.00;;;;;;2609479;54;21396;-75
2023/07/18 07:11:13;;;;;;;7.17;6.70;;;20.60;1.00;;;;;;2612381;54;20166;-76
2023/07/18 07:17:02;;;;;;;8.77;8.27;;;20.40;1.00;;;;;;2613921;54;20129;-75
2023/07/18 07:22:53;;;;;;;7.70;7.10;;;21.50;1.00;;;;;;2612852;54;20371;-76
2023/07/18 07:26:10;;;;;;;8.33;7.73;;;21.80;1.00;;;;;;2612499;54;20950;-75
2023/07/18 07:28:36;;;;;;;9.50;8.67;;;21.80;1.00;;;;;;2612704;39;20861;-76
2023/07/18 07:31:12;;;;;;;9.80;9.10;;;21.40;1.00;;;;;;2612431;54;20473;-75
2023/07/18 07:33:37;;;;;;;10.33;9.30;;;21.80;1.00;;;;;;2610118;50;20166;-76
2023/07/18 07:39:25;;;;;;;10.43;8.73;;;21.40;1.00;;;;;;2614253;54;20138;-75
2023/07/18 07:51:30;;;;;;;9.63;8.80;;;22.20;1.00;;;;;;2612444;54;20395;-75
2023/07/18 07:57:18;;;;;;;8.70;8.00;;;21.80;1.00;;;;;;2612616;54;20158;-76
2023/07/18 08:03:05;;;;;;;9.57;9.07;;;22.20;1.00;;;;;;2613403;39;20571;-76
2023/07/18 08:08:53;;;;;;;11.00;9.90;;;22.80;1.00;;;;;;2614658;54;20154;-77
2023/07/18 08:14:41;;;;;;;10.13;9.33;;;22.40;1.00;;;;;;2614490;54;20134;-75
2023/07/18 08:20:29;;;;;;;10.10;9.30;;;22.10;1.00;;;;;;2614681;54;20278;-75
2023/07/18 08:33:01;;;;;;;10.53;9.90;;;22.70;1.00;;;;;;2613449;54;20386;-75
2023/07/18 08:38:49;;;;;;;11.30;10.47;;;23.30;1.00;;;;;;2613246;54;20146;-75
2023/07/18 08:44:38;;;;;;;10.67;9.90;;;23.60;1.00;;;;;;2614245;54;20408;-77
2023/07/18 08:50:27;;;;;;;10.57;9.97;;;24.20;1.00;;;;;;2613548;54;20960;-77
2023/07/18 08:56:14;;;;;;;11.10;10.50;;;23.70;1.00;;;;;;2613579;54;20982;-76
2023/07/18 09:02:03;;;;;;;11.77;11.10;;;22.70;1.00;;;;;;2614770;54;20173;-76
2023/07/18 09:07:55;;;;;;;11.33;10.83;;;24.80;1.00;;;;;;2612381;54;20391;-77
2023/07/18 09:13:43;;;;;;;11.60;10.63;;;23.60;1.00;;;;;;2613028;54;20383;-76
2023/07/18 09:16:41;;;;;;;10.80;10.30;;;24.20;1.00;;;;;;2613160;39;21170;-76
2023/07/18 09:19:07;;;;;;;11.20;10.60;;;24.40;1.00;;;;;;2613562;39;20577;-76
2023/07/18 09:24:55;;;;;;;12.00;11.20;;;26.10;1.00;;;;;;2612577;54;20167;-77
2023/07/18 09:34:10;;;;;;;10.63;10.00;;;26.10;1.00;;;;;;2611755;54;20431;-76
2023/07/18 09:39:59;;;;;;;11.73;10.93;;;24.80;1.00;;;;;;2611596;54;20403;-77
2023/07/18 09:45:51;;;;;;;10.87;10.37;;;24.60;1.00;;;;;;2613346;54;20420;-76
2023/07/18 09:51:40;;;;;;;11.43;10.83;;;25.00;1.00;;;;;;2611382;54;20395;-75
2023/07/18 09:57:28;;;;;;;12.23;11.63;;;23.40;1.00;;;;;;2614752;54;20418;-77
2023/07/18 10:03:18;;;;;;;11.70;11.20;;;23.90;1.00;;;;;;2613804;46;20414;-77
2023/07/18 10:09:07;;;;;;;12.20;11.50;;;24.00;1.00;;;;;;2614072;54;20978;-77
2023/07/18 10:14:59;;;;;;;11.60;11.13;;;26.30;1.00;;;;;;2612266;54;20399;-76
2023/07/18 10:21:00;;;;;;;11.27;10.77;;;24.90;1.00;;;;;;2612301;39;20791;-77
2023/07/18 10:26:51;;;;;;;12.63;12.03;;;25.00;1.00;;;;;;2611795;54;20475;-76
2023/07/18 10:29:39;;;;;;;15.20;11.90;;;24.50;1.00;;;;;;2611570;54;20997;-76
2023/07/18 10:32:08;;;;;;;11.60;11.00;;;24.00;1.00;;;;;;2613452;39;20849;-77
2023/07/18 10:38:03;;;;;;;13.00;12.00;;;23.60;1.00;;;;;;2613035;54;20399;-76
2023/07/18 10:43:50;;;;;;;12.77;12.07;;;23.40;1.00;;;;;;2611415;54;20391;-76
2023/07/18 10:49:38;;;;;;;13.00;12.10;;;23.50;1.00;;;;;;2613471;54;20122;-76
2023/07/18 10:55:27;;;;;;;12.63;11.77;;;23.20;1.00;;;;;;2613502;39;21115;-77
2023/07/18 11:01:16;;;;;;;15.03;12.37;;;24.00;1.00;;;;;;2612984;54;21059;-76
2023/07/18 11:07:04;;;;;;;13.77;12.60;;;23.80;1.00;;;;;;2612903;54;20424;-76
2023/07/18 11:12:52;;;;;;;12.90;12.30;;;23.40;1.00;;;;;;2613078;54;20922;-75
2023/07/18 11:18:45;;;;;;;11.93;11.20;;;24.40;1.00;;;;;;2612302;54;20421;-77
2023/07/18 11:24:34;;;;;;;11.43;10.83;;;24.00;1.00;;;;;;2613610;54;20435;-76
2023/07/18 11:34:09;;;;;;;12.60;11.50;;;24.10;1.00;;;;;;2613791;54;20917;-77
2023/07/18 11:39:57;;;;;;;12.07;11.27;;;25.50;1.00;;;;;;2614697;39;21045;-76
2023/07/18 11:45:46;;;;;;;13.30;12.20;;;24.90;1.00;;;;;;2614875;54;20402;-75
2023/07/18 11:51:34;;;;;;;13.30;12.60;;;24.50;1.00;;;;;;2615338;54;20544;-75
2023/07/18 11:57:23;;;;;;;12.70;11.90;;;24.20;1.00;;;;;;2614139;54;20383;-77
2023/07/18 12:03:11;;;;;;;14.27;13.23;;;24.10;1.00;;;;;;2612450;39;20882;-77
2023/07/18 12:09:00;;;;;;;13.27;12.27;;;24.60;1.00;;;;;;2615049;54;20387;-75
2023/07/18 12:14:48;;;;;;;12.70;12.10;;;24.40;1.00;;;;;;2613659;54;20426;-76
2023/07/18 12:20:35;;;;;;;13.57;12.43;;;24.20;1.00;;;;;;2615088;39;20185;-77
2023/07/18 12:26:23;;;;;;;12.93;12.33;;;23.80;1.00;;;;;;2612378;54;20687;-77
2023/07/18 12:29:40;;;;;;;13.70;13.00;;;24.30;1.00;;;;;;2614247;54;20416;-77
2023/07/18 12:32:06;;;;;;;13.43;12.53;;;25.70;1.00;;;;;;2613103;54;20151;-76
2023/07/18 12:37:54;;;;;;;14.30;13.50;;;25.00;1.00;;;;;;2614593;54;20419;-77
2023/07/18 12:43:42;;;;;;;12.60;12.00;;;25.40;1.00;;;;;;2613735;54;20404;-76
2023/07/18 12:49:30;;;;;;;12.90;12.30;;;25.50;1.00;;;;;;2612970;54;20148;-77
2023/07/18 12:55:17;;;;;;;14.70;13.90;;;24.70;1.00;;;;;;2613061;54;20176;-77
2023/07/18 13:01:06;;;;;;;14.90;14.00;;;26.90;1.00;;;;;;2614771;54;20130;-78
2023/07/18 13:06:54;;;;;;;13.10;12.30;;;26.70;1.00;;;;;;2613504;54;20491;-77
2023/07/18 13:12:43;;;;;;;14.50;13.40;;;26.80;1.00;;;;;;2614687;54;20129;-77
2023/07/18 13:18:31;;;;;;;15.03;14.33;;;26.40;1.00;;;;;;2614587;54;20962;-77
2023/07/18 13:24:19;;;;;;;14.83;14.07;;;25.90;1.00;;;;;;2613846;54;20134;-76
2023/07/18 13:34:10;;;;;;;14.07;12.70;;;26.10;1.00;;;;;;2614596;54;20471;-77
2023/07/18 13:39:58;;;;;;;13.83;13.17;;;25.10;1.00;;;;;;2614537;54;20431;-78
2023/07/18 13:45:46;;;;;;;14.10;13.50;;;24.80;1.00;;;;;;2614314;39;20536;-77
2023/07/18 13:51:34;;;;;;;15.17;14.37;;;25.70;1.00;;;;;;2614587;54;20220;-76
2023/07/18 13:57:21;;;;;;;14.80;13.87;;;26.30;1.00;;;;;;2613776;54;20154;-77
2023/07/18 14:00:25;;;;;;;15.33;14.50;;;25.90;1.00;;;;;;2614045;54;20432;-77
2023/07/18 14:02:50;;;;;;;14.47;13.80;;;26.60;1.00;;;;;;2614140;54;20166;-76
2023/07/18 14:08:38;;;;;;;14.67;13.63;;;27.20;1.00;;;;;;2614050;54;20136;-78
2023/07/18 14:14:27;;;;;;;14.20;13.50;;;26.80;1.00;;;;;;2612672;54;20156;-77
2023/07/18 14:20:15;;;;;;;15.47;14.47;;;26.70;1.00;;;;;;2613981;54;20916;-77
2023/07/18 14:26:03;;;;;;;13.83;13.13;;;25.90;1.00;;;;;;2613641;54;20732;-77
2023/07/18 14:31:54;;;;;;;14.10;13.30;;;26.40;1.00;;;;;;2614495;54;20181;-79
2023/07/18 14:37:42;;;;;;;13.93;12.93;;;26.00;1.00;;;;;;2613979;54;20428;-78
2023/07/18 14:43:31;;;;;;;13.87;12.97;;;26.90;1.00;;;;;;2614328;54;20657;-76
2023/07/18 14:49:19;;;;;;;13.47;12.87;;;27.20;1.00;;;;;;2614153;54;20960;-77
2023/07/18 14:55:07;;;;;;;14.17;13.37;;;26.20;1.00;;;;;;2613764;39;20545;-78
2023/07/18 15:00:55;;;;;;;13.97;13.17;;;27.20;1.00;;;;;;2614675;54;20144;-78
2023/07/18 15:06:43;;;;;;;13.10;12.50;;;26.90;1.00;;;;;;2614187;54;20171;-77
2023/07/18 15:12:30;;;;;;;12.83;12.13;;;26.70;1.00;;;;;;2614317;54;20168;-77
2023/07/18 15:18:18;;;;;;;14.30;13.10;;;26.60;1.00;;;;;;2614072;54;20123;-77
2023/07/18 15:24:06;;;;;;;13.13;12.53;;;26.90;1.00;;;;;;2613470;54;20890;-76
2023/07/18 15:34:10;;;;;;;13.70;13.00;;;26.60;1.00;;;;;;2613792;54;21085;-77
2023/07/18 15:39:58;;;;;;;13.03;12.33;;;26.20;1.00;;;;;;2613777;54;20438;-77
2023/07/18 15:45:47;;;;;;;13.17;12.47;;;26.30;1.00;;;;;;2613949;54;20399;-76
2023/07/18 15:51:34;;;;;;;13.37;12.60;;;25.60;1.00;;;;;;2614001;46;20406;-76
2023/07/18 15:57:23;;;;;;;14.33;13.53;;;26.30;1.00;;;;;;2612534;54;20625;-77
2023/07/18 16:03:12;;;;;;;14.53;13.67;;;26.40;1.00;;;;;;2612690;54;20419;-76
2023/07/18 16:09:02;;;;;;;14.90;14.00;;;26.60;1.00;;;;;;2613122;54;20384;-76
2023/07/18 16:14:50;;;;;;;14.67;13.77;;;27.30;1.00;;;;;;2614017;54;20427;-77
2023/07/18 16:20:37;;;;;;;14.40;13.40;;;27.00;1.00;;;;;;2613733;54;20122;-77
2023/07/18 16:26:25;;;;;;;13.90;13.17;;;27.50;1.00;;;;;;2614545;31;20560;-76
2023/07/18 16:29:40;;;;;;;14.00;13.20;;;27.60;1.00;;;;;;2614134;54;20423;-77
2023/07/18 16:32:07;;;;;;;14.27;13.20;;;27.60;1.00;;;;;;2614805;54;20155;-77
2023/07/18 16:37:55;;;;;;;15.00;13.80;;;26.20;1.00;;;;;;2615387;54;20399;-77
2023/07/18 16:43:43;;;;;;;14.00;13.20;;;27.10;1.00;;;;;;2614474;54;20130;-77
2023/07/18 16:49:31;;;;;;;13.57;12.87;;;27.70;1.00;;;;;;2614946;54;20391;-78
2023/07/18 16:55:19;;;;;;;13.57;12.87;;;27.60;1.00;;;;;;2615230;39;20527;-76
2023/07/18 17:01:07;;;;;;;15.40;14.50;;;27.80;1.00;;;;;;2614469;54;20130;-77
2023/07/18 17:06:55;;;;;;;14.33;13.63;;;27.40;1.00;;;;;;2614991;39;20866;-77
2023/07/18 17:12:46;;;;;;;15.10;14.33;;;27.10;1.00;;;;;;2613269;54;20138;-76
2023/07/18 17:18:34;;;;;;;13.37;12.23;;;26.70;1.00;;;;;;2614445;54;20396;-74
2023/07/18 17:24:21;;;;;;;14.03;13.20;;;25.50;1.00;;;;;;2614666;54;20147;-73
2023/07/18 17:34:08;;;;;;;14.33;13.43;;;25.00;1.00;;;;;;2612218;54;20443;-74
2023/07/18 17:39:56;;;;;;;15.20;14.30;;;25.40;1.00;;;;;;2613832;39;20809;-73
2023/07/18 17:45:44;;;;;;;14.57;13.87;;;24.80;1.00;;;;;;2613814;54;20146;-74
2023/07/18 17:51:31;;;;;;;13.87;13.27;;;24.60;1.00;;;;;;2613674;46;20174;-74
2023/07/18 17:57:19;;;;;;;14.60;13.80;;;24.10;1.00;;;;;;2613443;54;20685;-73
2023/07/18 18:03:06;;;;;;;14.20;13.40;;;24.10;1.00;;;;;;2614577;54;20246;-74
2023/07/18 18:08:54;;;;;;;13.83;13.13;;;24.00;1.00;;;;;;2615101;39;20494;-74
2023/07/18 18:14:42;;;;;;;14.43;13.53;;;23.70;1.00;;;;;;2615138;54;20126;-74
2023/07/18 18:20:29;;;;;;;13.60;12.90;;;23.50;1.00;;;;;;2615222;54;20133;-73
2023/07/18 18:26:17;;;;;;;14.40;13.50;;;23.40;1.00;;;;;;2614797;39;20632;-74
2023/07/18 18:29:41;;;;;;;14.90;14.10;;;23.30;1.00;;;;;;2614543;54;20435;-74
2023/07/18 18:32:07;;;;;;;15.30;14.37;;;23.00;1.00;;;;;;2612743;54;20697;-75
2023/07/18 18:37:54;;;;;;;14.77;13.97;;;22.90;1.00;;;;;;2615021;31;20857;-74
2023/07/18 18:43:42;;;;;;;13.97;13.00;;;22.50;1.00;;;;;;2612285;54;20661;-74
2023/07/18 18:49:30;;;;;;;15.50;14.53;;;22.30;1.00;;;;;;2614186;54;20167;-74
2023/07/18 18:55:17;;;;;;;14.23;13.43;;;22.00;1.00;;;;;;2614125;54;20158;-74
2023/07/18 19:01:05;;;;;;;14.60;13.90;;;21.60;1.00;;;;;;2614386;54;20122;-73
2023/07/18 19:06:52;;;;;;;13.90;13.20;;;21.30;1.00;;;;;;2613121;54;20668;-73
2023/07/18 19:12:40;;;;;;;13.80;13.10;;;21.10;1.00;;;;;;2614516;39;20967;-74
2023/07/18 19:18:28;;;;;;;14.43;13.63;;;20.70;1.00;;;;;;2614176;54;20138;-74
2023/07/18 19:24:16;;;;;;;14.30;13.40;;;20.50;1.00;;;;;;2614151;54;20951;-74
2023/07/18 19:34:09;;;;;;;13.70;13.00;;;20.00;1.00;;;;;;2613651;54;20428;-74
2023/07/18 19:39:57;;;;;;;13.97;12.97;;;19.60;1.00;;;;;;2613598;54;20432;-73
2023/07/18 19:45:45;;;;;;;14.30;13.47;;;19.30;1.00;;;;;;2613725;54;20146;-74
2023/07/18 19:51:33;;;;;;;15.03;13.93;;;19.20;1.00;;;;;;2614193;54;20123;-74
2023/07/18 19:57:21;;;;;;;13.93;13.10;;;19.00;1.00;;;;;;2614354;39;20640;-73
2023/07/18 20:00:25;;;;;;;14.20;13.40;;;18.80;1.00;;;;;;2612945;47;20994;-74
2023/07/18 20:02:50;;;;;;;13.63;12.80;;;18.70;1.00;;;;;;2614419;54;20441;-74
2023/07/18 20:08:38;;;;;;;13.20;12.40;;;18.60;1.00;;;;;;2615382;54;20140;-74
2023/07/18 20:14:26;;;;;;;13.10;12.10;;;18.50;1.00;;;;;;2614928;54;20530;-75
2023/07/18 20:20:14;;;;;;;13.17;12.27;;;18.30;1.00;;;;;;2614091;54;20142;-74
2023/07/18 20:26:02;;;;;;;13.67;12.87;;;18.30;1.00;;;;;;2615107;54;20661;-75
2023/07/18 20:35:11;;;;;;;12.27;11.43;;;18.10;1.00;;;;;;2613614;54;20450;-73
2023/07/18 20:40:59;;;;;;;12.10;11.40;;;17.90;1.00;;;;;;2613969;54;20115;-73
2023/07/18 20:46:46;;;;;;;12.43;11.40;;;17.60;1.00;;;;;;2614440;54;20164;-73
2023/07/18 20:52:34;;;;;;;12.73;11.83;;;17.80;1.00;;;;;;2615169;39;20673;-72
2023/07/18 20:58:22;;;;;;;12.50;11.80;;;17.60;1.00;;;;;;2614402;54;20123;-73
2023/07/18 21:04:10;;;;;;;11.83;11.20;;;17.60;1.00;;;;;;2614789;54;20373;-73
2023/07/18 21:09:57;;;;;;;12.33;11.63;;;17.50;1.00;;;;;;2614187;39;20539;-73
2023/07/18 21:15:45;;;;;;;13.03;12.23;;;17.40;1.00;;;;;;2612017;46;20157;-74
2023/07/18 21:21:34;;;;;;;12.30;11.37;;;17.10;1.00;;;;;;2614356;54;20143;-73
2023/07/18 21:27:21;;;;;;;13.30;12.30;;;17.10;1.00;;;;;;2614461;54;20387;-73
2023/07/18 21:30:42;;;;;;;12.20;11.40;;;17.00;1.00;;;;;;2612545;47;20404;-73
2023/07/18 21:33:08;;;;;;;13.17;12.20;;;17.10;1.00;;;;;;2614247;54;20259;-73
2023/07/18 21:38:55;;;;;;;12.23;10.93;;;16.80;1.00;;;;;;2610659;54;20122;-74
2023/07/18 21:44:43;;;;;;;12.23;11.53;;;16.60;1.00;;;;;;2614248;54;20197;-74
2023/07/18 21:50:31;;;;;;;12.87;11.60;;;16.50;1.00;;;;;;2614173;54;20196;-74
2023/07/18 21:56:20;;;;;;;13.00;12.20;;;16.50;1.00;;;;;;2613823;54;20250;-74
2023/07/18 22:02:11;;;;;;;25.33;22.87;;;16.40;1.00;;;;;;2613486;39;20788;-74
2023/07/18 22:07:59;;;;;;;27.83;25.00;;;16.20;1.00;;;;;;2615054;54;20395;-74
2023/07/18 22:13:47;;;;;;;24.30;20.70;;;16.00;1.00;;;;;;2613621;54;20151;-74
2023/07/18 22:19:35;;;;;;;14.07;12.60;;;16.10;1.00;;;;;;2614737;54;20537;-74
2023/07/18 22:25:23;;;;;;;12.37;11.30;;;16.00;1.00;;;;;;2614456;54;20133;-73
2023/07/18 22:35:13;;;;;;;11.87;11.07;;;15.90;1.00;;;;;;2613820;39;20758;-73
2023/07/18 22:41:02;;;;;;;12.20;11.20;;;15.90;1.00;;;;;;2614155;54;20412;-73
2023/07/18 22:46:49;;;;;;;10.80;10.00;;;15.90;1.00;;;;;;2613077;54;20469;-74
2023/07/18 22:52:37;;;;;;;10.80;9.80;;;15.90;1.00;;;;;;2613907;54;20122;-73
2023/07/18 22:58:25;;;;;;;10.97;10.00;;;15.80;1.00;;;;;;2613988;46;20255;-74
2023/07/18 23:04:12;;;;;;;11.30;10.40;;;15.90;1.00;;;;;;2613693;54;20133;-74
2023/07/18 23:10:00;;;;;;;11.97;10.50;;;15.80;1.00;;;;;;2613862;54;20270;-73
2023/07/18 23:15:48;;;;;;;11.00;10.40;;;16.00;1.00;;;;;;2614237;54;20131;-73
2023/07/18 23:21:35;;;;;;;12.57;11.47;;;16.10;1.00;;;;;;2613747;54;20177;-73
2023/07/18 23:27:23;;;;;;;12.00;11.30;;;16.10;1.00;;;;;;2614367;54;20247;-73
2023/07/18 23:30:43;;;;;;;12.77;11.53;;;16.20;1.00;;;;;;2613780;54;20435;-74
2023/07/18 23:33:09;;;;;;;12.77;11.53;;;16.20;1.00;;;;;;2613647;54;20143;-73
2023/07/18 23:38:57;;;;;;;12.50;11.67;;;16.20;1.00;;;;;;2613926;54;20134;-73
2023/07/18 23:44:44;;;;;;;12.23;11.43;;;16.10;1.00;;;;;;2613038;54;20205;-73
2023/07/18 23:50:32;;;;;;;12.17;11.13;;;16.20;1.00;;;;;;2613160;54;20119;-73
2023/07/18 23:56:20;;;;;;;12.30;11.23;;;16.30;1.00;;;;;;2614924;54;20150;-73
